createdAt,value
2022-09-28T00:01:19.920Z,9.07
2022-09-28T00:03:50.782Z,9.05
2022-09-28T00:06:22.249Z,9.08
2022-09-28T00:08:50.917Z,9.06
2022-09-28T00:11:21.693Z,9.05
2022-09-28T00:13:52.543Z,9.07
2022-09-28T00:16:22.702Z,9.05
2022-09-28T00:18:52.472Z,9.03
2022-09-28T00:21:22.858Z,9.01
2022-09-28T00:24:19.957Z,8.92
2022-09-28T00:26:58.454Z,8.92
2022-09-28T00:29:37.154Z,8.83
2022-09-28T00:32:13.248Z,8.81
2022-09-28T00:34:48.867Z,8.82
2022-09-28T00:37:21.328Z,8.80
2022-09-28T00:39:49.741Z,8.68
2022-09-28T00:42:21.320Z,8.64
2022-09-28T00:44:57.114Z,8.71
2022-09-28T00:47:40.427Z,8.72
2022-09-28T00:50:24.975Z,8.74
2022-09-28T00:53:01.641Z,8.76
2022-09-28T00:55:41.207Z,8.74
2022-09-28T00:58:12.081Z,8.73
2022-09-28T01:00:42.128Z,8.77
2022-09-28T01:03:50.318Z,8.64
2022-09-28T01:06:24.566Z,8.61
2022-09-28T01:08:52.663Z,8.64
2022-09-28T01:11:21.406Z,8.70
2022-09-28T01:13:51.970Z,8.65
2022-09-28T01:16:28.964Z,8.61
2022-09-28T01:19:04.273Z,8.65
2022-09-28T01:22:07.447Z,8.71
2022-09-28T01:24:43.074Z,8.67
2022-09-28T01:27:36.230Z,8.67
2022-09-28T01:30:26.450Z,8.73
2022-09-28T01:33:05.310Z,8.83
2022-09-28T01:35:54.395Z,8.80
2022-09-28T01:38:24.903Z,8.73
2022-09-28T01:40:52.702Z,8.75
2022-09-28T01:43:25.999Z,8.68
2022-09-28T01:46:15.328Z,8.68
2022-09-28T01:48:54.130Z,8.68
2022-09-28T01:51:31.265Z,8.69
2022-09-28T01:54:03.371Z,8.70
2022-09-28T01:57:03.973Z,8.71
2022-09-28T01:59:34.732Z,8.75
2022-09-28T02:02:17.568Z,8.75
2022-09-28T02:04:54.860Z,8.72
2022-09-28T02:07:27.257Z,8.71
2022-09-28T02:10:02.532Z,8.66
2022-09-28T02:13:07.891Z,8.67
2022-09-28T02:16:03.699Z,8.73
2022-09-28T02:18:32.376Z,8.78
2022-09-28T02:21:11.738Z,8.79
2022-09-28T02:23:40.898Z,8.82
2022-09-28T02:26:14.346Z,8.79
2022-09-28T02:28:43.551Z,8.83
2022-09-28T02:31:12.736Z,8.81
2022-09-28T02:33:44.230Z,8.83
2022-09-28T02:36:11.769Z,8.80
2022-09-28T02:38:40.144Z,8.70
2022-09-28T02:41:33.839Z,8.60
2022-09-28T02:44:01.386Z,8.64
2022-09-28T02:47:16.532Z,8.66
2022-09-28T02:50:08.776Z,8.65
2022-09-28T02:53:22.354Z,8.65
2022-09-28T02:56:08.515Z,8.65
2022-09-28T02:58:55.083Z,8.72
2022-09-28T03:02:02.268Z,8.80
2022-09-28T03:04:43.097Z,8.81
2022-09-28T03:07:53.159Z,8.81
2022-09-28T03:10:37.919Z,8.83
2022-09-28T03:13:07.580Z,8.80
2022-09-28T03:15:37.448Z,8.80
2022-09-28T03:18:14.457Z,8.82
2022-09-28T03:20:42.730Z,8.80
2022-09-28T03:23:26.119Z,8.77
2022-09-28T03:25:57.442Z,8.75
2022-09-28T03:28:28.217Z,8.77
2022-09-28T03:30:57.299Z,8.79
2022-09-28T03:34:02.508Z,8.76
2022-09-28T03:36:32.039Z,8.69
2022-09-28T03:39:02.308Z,8.66
2022-09-28T03:41:32.946Z,8.62
2022-09-28T03:44:02.576Z,8.58
2022-09-28T03:46:31.427Z,8.47
2022-09-28T03:49:01.809Z,8.41
2022-09-28T03:51:33.554Z,8.34
2022-09-28T03:54:01.000Z,8.39
2022-09-28T03:56:31.120Z,8.41
2022-09-28T03:58:59.920Z,8.38
2022-09-28T04:01:27.770Z,8.40
2022-09-28T04:03:59.683Z,8.43
2022-09-28T04:06:29.197Z,8.44
2022-09-28T04:08:57.654Z,8.45
2022-09-28T04:11:26.979Z,8.46
2022-09-28T04:13:54.389Z,8.47
2022-09-28T04:16:24.631Z,8.47
2022-09-28T04:18:52.499Z,8.44
2022-09-28T04:21:20.969Z,8.45
2022-09-28T04:23:49.310Z,8.47
2022-09-28T04:26:20.112Z,8.45
2022-09-28T04:29:07.458Z,8.40
2022-09-28T04:31:40.203Z,8.33
2022-09-28T04:34:08.761Z,8.30
2022-09-28T04:36:36.212Z,8.21
2022-09-28T04:39:03.914Z,8.20
2022-09-28T04:41:31.464Z,8.24
2022-09-28T04:44:12.013Z,8.29
2022-09-28T04:46:45.619Z,8.33
2022-09-28T04:49:19.399Z,8.35
2022-09-28T04:51:48.196Z,8.27
2022-09-28T04:54:24.306Z,8.23
2022-09-28T04:56:55.905Z,8.28
2022-09-28T04:59:32.272Z,8.31
2022-09-28T05:02:01.821Z,8.37
2022-09-28T05:04:31.285Z,8.44
2022-09-28T05:06:59.014Z,8.40
2022-09-28T05:09:27.485Z,8.43
2022-09-28T05:11:56.520Z,8.44
2022-09-28T05:14:24.661Z,8.45
2022-09-28T05:16:52.049Z,8.44
2022-09-28T05:19:21.493Z,8.34
2022-09-28T05:21:49.202Z,8.33
2022-09-28T05:24:19.098Z,8.39
2022-09-28T05:26:49.011Z,8.39
2022-09-28T05:29:20.484Z,8.40
2022-09-28T05:31:47.830Z,8.46
2022-09-28T05:34:15.592Z,8.52
2022-09-28T05:36:45.759Z,8.46
2022-09-28T05:39:13.174Z,8.40
2022-09-28T05:41:41.742Z,8.39
2022-09-28T05:44:09.179Z,8.34
2022-09-28T05:46:36.846Z,8.38
2022-09-28T05:49:04.157Z,8.26
2022-09-28T05:51:32.685Z,8.15
2022-09-28T05:54:04.838Z,8.16
2022-09-28T05:56:33.653Z,8.22
2022-09-28T05:59:02.024Z,8.26
2022-09-28T06:01:30.396Z,8.33
2022-09-28T06:04:00.094Z,8.42
2022-09-28T06:06:27.649Z,8.45
2022-09-28T06:08:56.315Z,8.49
2022-09-28T06:11:26.598Z,8.54
2022-09-28T06:13:58.247Z,8.56
2022-09-28T06:16:25.934Z,8.53
2022-09-28T06:18:53.268Z,8.55
2022-09-28T06:21:21.527Z,8.58
2022-09-28T06:23:49.586Z,8.64
2022-09-28T06:26:19.838Z,8.71
2022-09-28T06:28:47.450Z,8.77
2022-09-28T06:31:16.005Z,8.80
2022-09-28T06:33:43.607Z,8.78
2022-09-28T06:36:13.522Z,8.83
2022-09-28T06:38:41.218Z,8.88
2022-09-28T06:41:09.202Z,8.91
2022-09-28T06:43:49.117Z,8.88
2022-09-28T06:46:16.686Z,8.91
2022-09-28T06:48:53.935Z,8.95
2022-09-28T06:51:23.585Z,8.94
2022-09-28T06:53:53.995Z,8.99
2022-09-28T06:56:21.621Z,9.08
2022-09-28T06:58:49.297Z,9.13
2022-09-28T07:01:16.924Z,9.15
2022-09-28T07:03:44.516Z,9.18
2022-09-28T07:06:12.618Z,9.20
2022-09-28T07:08:40.603Z,9.25
2022-09-28T07:11:08.528Z,9.26
2022-09-28T07:13:49.963Z,9.28
2022-09-28T07:16:22.728Z,9.27
2022-09-28T07:18:53.356Z,9.33
2022-09-28T07:21:34.400Z,9.41
2022-09-28T07:24:06.209Z,9.46
2022-09-28T07:26:34.435Z,9.52
2022-09-28T07:29:02.008Z,9.54
2022-09-28T07:31:29.816Z,9.56
2022-09-28T07:33:58.800Z,9.61
2022-09-28T07:36:26.220Z,9.71
2022-09-28T07:38:53.769Z,9.76
2022-09-28T07:41:32.594Z,9.87
2022-09-28T07:44:05.496Z,9.94
2022-09-28T07:46:34.184Z,10.04
2022-09-28T07:49:08.373Z,10.11
2022-09-28T07:51:39.102Z,10.15
2022-09-28T07:54:06.638Z,10.22
2022-09-28T07:56:36.734Z,10.21
2022-09-28T07:59:04.979Z,10.22
2022-09-28T08:01:32.579Z,10.23
2022-09-28T08:04:00.287Z,10.26
2022-09-28T08:06:30.865Z,10.26
2022-09-28T08:09:00.121Z,10.34
2022-09-28T08:11:27.892Z,10.39
2022-09-28T08:13:55.578Z,10.41
2022-09-28T08:16:23.684Z,10.44
2022-09-28T08:18:51.391Z,10.43
2022-09-28T08:21:38.020Z,10.48
2022-09-28T08:24:10.725Z,10.53
2022-09-28T08:26:53.399Z,10.57
2022-09-28T08:29:22.101Z,10.64
2022-09-28T08:31:50.202Z,10.67
2022-09-28T08:34:25.171Z,10.69
2022-09-28T08:36:57.138Z,10.75
2022-09-28T08:39:30.584Z,10.76
2022-09-28T08:42:20.525Z,10.76
2022-09-28T08:44:59.628Z,10.83
2022-09-28T08:48:06.793Z,10.88
2022-09-28T08:50:38.635Z,10.93
2022-09-28T08:56:52.401Z,11.01
2022-09-28T08:59:29.151Z,11.05
2022-09-28T09:02:05.954Z,11.05
2022-09-28T09:04:36.007Z,11.00
2022-09-28T09:08:09.913Z,11.02
2022-09-28T09:11:12.919Z,10.97
2022-09-28T09:14:03.585Z,10.97
2022-09-28T09:16:36.792Z,11.07
2022-09-28T09:19:17.138Z,11.10
2022-09-28T09:21:50.248Z,11.18
2022-09-28T09:24:35.834Z,11.27
2022-09-28T09:27:38.701Z,11.34
2022-09-28T09:30:31.185Z,11.44
2022-09-28T09:33:10.126Z,11.44
2022-09-28T09:35:56.271Z,11.51
2022-09-28T09:38:56.520Z,11.64
2022-09-28T09:42:02.306Z,11.71
2022-09-28T09:44:41.751Z,11.74
2022-09-28T09:47:13.686Z,11.76
2022-09-28T09:57:18.940Z,11.95
2022-09-28T09:59:59.176Z,11.98
2022-09-28T10:02:32.668Z,11.96
2022-09-28T10:05:22.395Z,11.96
2022-09-28T10:08:01.234Z,11.99
2022-09-28T10:11:13.588Z,12.00
2022-09-28T10:13:48.978Z,12.06
2022-09-28T10:16:53.813Z,12.08
2022-09-28T10:19:56.731Z,12.00
2022-09-28T10:26:25.716Z,11.85
2022-09-28T10:28:56.345Z,11.87
2022-09-28T10:31:43.848Z,11.87
2022-09-28T10:34:17.329Z,11.88
2022-09-28T10:37:11.207Z,11.82
2022-09-28T10:39:54.051Z,11.89
2022-09-28T10:42:40.682Z,11.98
2022-09-28T10:45:23.661Z,11.99
2022-09-28T10:47:56.967Z,11.94
2022-09-28T10:50:33.042Z,11.96
2022-09-28T10:53:23.002Z,11.88
2022-09-28T10:56:03.022Z,11.92
2022-09-28T10:58:41.065Z,12.06
2022-09-28T11:01:27.618Z,12.21
2022-09-28T11:04:04.605Z,12.27
2022-09-28T11:06:37.830Z,12.37
2022-09-28T11:09:18.821Z,12.53
2022-09-28T11:11:48.862Z,12.64
2022-09-28T11:14:32.245Z,12.82
2022-09-28T11:17:34.897Z,12.86
2022-09-28T11:20:28.002Z,12.64
2022-09-28T11:22:59.257Z,12.75
2022-09-28T11:25:32.255Z,12.74
2022-09-28T11:28:04.949Z,12.78
2022-09-28T11:30:41.821Z,12.85
2022-09-28T11:33:41.181Z,12.80
2022-09-28T11:36:17.382Z,12.54
2022-09-28T11:39:20.151Z,12.39
2022-09-28T11:42:16.119Z,12.28
2022-09-28T11:44:49.249Z,12.38
2022-09-28T11:47:49.906Z,12.38
2022-09-28T11:50:33.693Z,12.26
2022-09-28T11:53:24.334Z,12.30
2022-09-28T11:56:24.864Z,12.50
2022-09-28T11:59:23.873Z,12.85
2022-09-28T12:02:33.169Z,13.13
2022-09-28T12:05:38.420Z,13.22
2022-09-28T12:08:34.936Z,13.32
2022-09-28T12:11:09.302Z,13.27
2022-09-28T12:13:45.724Z,13.00
2022-09-28T12:16:45.564Z,12.81
2022-09-28T12:19:19.623Z,12.88
2022-09-28T12:24:54.715Z,13.12
2022-09-28T12:27:47.403Z,12.88
2022-09-28T12:30:22.298Z,12.83
2022-09-28T12:33:01.231Z,12.83
2022-09-28T12:36:01.309Z,12.68
2022-09-28T12:39:27.215Z,12.74
2022-09-28T12:42:38.297Z,12.76
2022-09-28T12:46:06.793Z,12.76
2022-09-28T12:50:01.880Z,12.63
2022-09-28T12:52:28.372Z,12.64
2022-09-28T12:58:02.715Z,12.49
2022-09-28T13:00:41.065Z,12.55
2022-09-28T13:03:35.736Z,12.53
2022-09-28T13:06:33.415Z,12.44
2022-09-28T13:09:23.066Z,12.36
2022-09-28T13:12:42.955Z,12.22
2022-09-28T13:15:34.926Z,12.19
2022-09-28T13:18:21.723Z,12.34
2022-09-28T13:21:05.771Z,12.51
2022-09-28T13:23:45.734Z,12.41
2022-09-28T13:26:34.740Z,12.45
2022-09-28T13:29:09.749Z,12.39
2022-09-28T13:32:14.062Z,12.52
2022-09-28T13:34:43.732Z,12.62
2022-09-28T13:37:19.314Z,12.73
2022-09-28T13:39:52.911Z,12.88
2022-09-28T13:42:53.941Z,13.01
2022-09-28T13:45:32.536Z,12.90
2022-09-28T13:48:49.837Z,12.84
2022-09-28T13:51:33.157Z,12.87
2022-09-28T13:54:21.765Z,12.97
2022-09-28T13:57:13.227Z,12.95
2022-09-28T14:00:18.076Z,12.78
2022-09-28T14:03:25.491Z,12.92
2022-09-28T14:06:08.442Z,13.05
2022-09-28T14:09:18.947Z,13.13
2022-09-28T14:12:07.616Z,13.18
2022-09-28T14:17:44.461Z,13.20
2022-09-28T14:20:17.296Z,13.14
2022-09-28T14:23:03.626Z,13.08
2022-09-28T14:25:47.075Z,13.18
2022-09-28T14:28:46.537Z,13.31
2022-09-28T14:31:27.773Z,13.37
2022-09-28T14:34:09.097Z,13.49
2022-09-28T14:37:00.521Z,13.71
2022-09-28T14:39:55.769Z,13.88
2022-09-28T14:42:27.289Z,13.86
2022-09-28T14:45:07.445Z,13.70
2022-09-28T14:47:43.071Z,13.66
2022-09-28T14:50:32.452Z,13.63
2022-09-28T14:53:12.220Z,13.58
2022-09-28T14:55:59.858Z,13.48
2022-09-28T14:58:29.982Z,13.36
2022-09-28T15:01:03.263Z,13.28
2022-09-28T15:03:32.947Z,13.23
2022-09-28T15:06:02.769Z,13.01
2022-09-28T15:08:37.695Z,12.92
2022-09-28T15:11:05.529Z,12.90
2022-09-28T15:13:32.750Z,12.80
2022-09-28T15:16:05.711Z,12.63
2022-09-28T15:18:47.834Z,12.61
2022-09-28T15:21:16.349Z,12.52
2022-09-28T15:23:44.852Z,12.47
2022-09-28T15:26:33.865Z,12.52
2022-09-28T15:29:03.460Z,12.52
2022-09-28T15:31:36.308Z,12.50
2022-09-28T15:34:22.126Z,12.50
2022-09-28T15:36:50.203Z,12.42
2022-09-28T15:39:36.653Z,12.37
2022-09-28T15:45:41.178Z,12.27
2022-09-28T15:48:17.689Z,12.32
2022-09-28T15:50:58.668Z,12.40
2022-09-28T15:53:26.935Z,12.49
2022-09-28T15:56:01.225Z,12.56
2022-09-28T15:58:29.027Z,12.56
2022-09-28T16:01:21.022Z,12.55
2022-09-28T16:03:51.438Z,12.50
2022-09-28T16:06:19.957Z,12.39
2022-09-28T16:08:49.081Z,12.22
2022-09-28T16:11:27.323Z,11.99
2022-09-28T16:14:09.086Z,11.96
2022-09-28T16:16:50.554Z,11.87
2022-09-28T16:19:35.948Z,11.76
2022-09-28T16:22:09.649Z,11.64
2022-09-28T16:24:39.538Z,11.41
2022-09-28T16:27:36.882Z,11.35
2022-09-28T16:30:29.645Z,11.35
2022-09-28T16:34:11.659Z,11.26
2022-09-28T16:36:13.270Z,11.14
2022-09-28T16:40:02.427Z,11.03
2022-09-28T16:45:42.018Z,11.12
2022-09-28T16:48:25.506Z,10.91
2022-09-28T16:51:00.111Z,10.70
2022-09-28T16:54:23.425Z,10.61
2022-09-28T16:56:51.297Z,10.66
2022-09-28T16:59:18.504Z,10.59
2022-09-28T17:01:45.769Z,10.43
2022-09-28T17:04:14.438Z,10.35
2022-09-28T17:06:46.489Z,10.29
2022-09-28T17:09:32.695Z,10.24
2022-09-28T17:12:03.577Z,10.17
2022-09-28T17:14:33.005Z,10.16
2022-09-28T17:17:09.106Z,10.15
2022-09-28T17:19:39.308Z,10.09
2022-09-28T17:22:14.677Z,10.06
2022-09-28T17:24:48.195Z,10.04
2022-09-28T17:27:17.268Z,10.10
2022-09-28T17:29:51.792Z,10.09
2022-09-28T17:32:24.398Z,10.17
2022-09-28T17:35:19.841Z,10.13
2022-09-28T17:37:48.774Z,10.06
2022-09-28T17:40:29.286Z,9.99
2022-09-28T17:43:02.471Z,9.99
2022-09-28T17:45:31.350Z,9.98
2022-09-28T17:48:17.952Z,9.95
2022-09-28T17:50:49.124Z,9.93
2022-09-28T17:53:21.587Z,10.01
2022-09-28T17:55:59.823Z,9.96
2022-09-28T17:58:57.815Z,9.88
2022-09-28T18:01:33.858Z,9.81
2022-09-28T18:04:39.633Z,9.78
2022-09-28T18:07:08.207Z,9.72
2022-09-28T18:09:59.316Z,9.72
2022-09-28T18:12:32.031Z,9.71
2022-09-28T18:15:24.599Z,9.67
2022-09-28T18:18:10.207Z,9.69
2022-09-28T18:20:43.893Z,9.73
2022-09-28T18:23:34.190Z,9.71
2022-09-28T18:26:06.231Z,9.67
2022-09-28T18:28:37.946Z,9.71
2022-09-28T18:31:19.424Z,9.78
2022-09-28T18:36:54.339Z,9.80
2022-09-28T18:39:36.360Z,9.86
2022-09-28T18:42:25.035Z,9.86
2022-09-28T18:44:57.976Z,9.91
2022-09-28T18:47:28.246Z,9.92
2022-09-28T18:50:01.518Z,9.95
2022-09-28T18:52:30.155Z,9.98
2022-09-28T18:55:00.373Z,10.03
2022-09-28T18:57:34.354Z,10.07
2022-09-28T19:00:07.595Z,10.12
2022-09-28T19:02:39.021Z,10.14
2022-09-28T19:05:26.133Z,10.03
2022-09-28T19:08:17.739Z,9.94
2022-09-28T20:10:57.277Z,9.37
2022-09-28T20:39:41.587Z,9.22
2022-09-28T20:43:08.641Z,9.22
2022-09-28T20:53:19.380Z,9.31
2022-09-28T20:56:51.490Z,9.29
2022-09-28T21:00:57.544Z,9.37
2022-09-28T21:04:20.504Z,9.27
2022-09-28T22:13:29.183Z,9.12
2022-09-28T22:15:57.774Z,9.11
2022-09-28T22:18:25.913Z,9.10
2022-09-28T22:21:29.169Z,9.19
2022-09-28T22:24:01.583Z,9.19
2022-09-28T22:26:29.809Z,9.22
2022-09-28T22:29:01.827Z,9.24
2022-09-28T22:31:33.407Z,9.22
2022-09-28T22:34:00.867Z,9.24
2022-09-28T22:36:28.735Z,9.27
2022-09-28T22:38:56.835Z,9.26
2022-09-28T22:41:24.961Z,9.25
2022-09-28T22:43:53.347Z,9.23
2022-09-28T22:46:22.951Z,9.24
2022-09-28T22:48:55.087Z,9.25
2022-09-28T22:51:23.347Z,9.27
2022-09-28T22:53:50.529Z,9.28
2022-09-28T22:56:19.182Z,9.28
2022-09-28T22:58:46.628Z,9.27
2022-09-28T23:01:17.802Z,9.30
2022-09-28T23:03:45.698Z,9.27
2022-09-28T23:06:19.454Z,9.19
2022-09-28T23:08:51.823Z,9.13
2022-09-28T23:11:20.466Z,9.09
2022-09-28T23:14:06.918Z,9.04
2022-09-28T23:17:01.100Z,9.03
2022-09-28T23:19:28.597Z,9.03
2022-09-28T23:22:07.959Z,9.01
2022-09-28T23:24:43.870Z,9.07
2022-09-28T23:27:25.434Z,9.12
2022-09-28T23:29:57.471Z,9.02
2022-09-28T23:32:37.400Z,8.97
2022-09-28T23:35:09.937Z,8.89
2022-09-28T23:37:48.240Z,8.88
2022-09-28T23:40:29.160Z,8.85
2022-09-28T23:43:02.750Z,8.86
2022-09-28T23:48:36.679Z,8.85
2022-09-28T23:53:49.575Z,8.79
2022-09-28T23:56:16.637Z,8.80
2022-09-28T23:58:43.778Z,8.80
